Time;durP1;ratioP1;P1;durP2;ratioP2;P2;SDS_P1;SDS_P2;PMS_P1;PMS_P2;Temp;Humidity;BMP_temperature;BMP_pressure;BME280_temperature;BME280_humidity;BME280_pressure;Samples;Min_cycle;Max_cycle;Signal;HPM_P1;HPM_P2
2023/05/16 00:01:12;;;;;;;6.55;3.10;;;;;;;;;;10402489;28;20048;-77
2023/05/16 00:06:15;;;;;;;6.13;3.30;;;;;;;;;;10400035;28;20570;-77
2023/05/16 00:11:18;;;;;;;5.07;2.95;;;;;;;;;;10397111;28;20090;-77
2023/05/16 00:16:24;;;;;;;6.77;2.93;;;;;;;;;;10397818;28;20045;-78
2023/05/16 00:21:27;;;;;;;6.03;2.95;;;;;;;;;;10398226;28;20068;-76
2023/05/16 00:26:29;;;;;;;6.35;3.30;;;;;;;;;;10398779;28;20041;-76
2023/05/16 00:31:34;;;;;;;6.40;3.10;;;;;;;;;;10394175;28;20038;-77
2023/05/16 00:36:36;;;;;;;3.47;2.45;;;;;;;;;;10393276;28;20061;-76
2023/05/16 00:41:39;;;;;;;4.70;2.58;;;;;;;;;;10398101;28;20826;-78
2023/05/16 00:46:43;;;;;;;5.00;2.60;;;;;;;;;;10399220;28;20053;-77
2023/05/16 00:51:46;;;;;;;;;;;;;;;;;;10399418;28;20282;-76
2023/05/16 00:56:48;;;;;;;7.63;3.60;;;;;;;;;;10402099;28;19925;-76
2023/05/16 01:01:52;;;;;;;5.30;2.80;;;;;;;;;;10394634;28;20045;-76
2023/05/16 01:06:56;;;;;;;6.13;2.55;;;;;;;;;;10394415;28;20355;-76
2023/05/16 01:12:02;;;;;;;4.97;2.58;;;;;;;;;;10397767;28;20108;-76
2023/05/16 01:17:09;;;;;;;6.45;3.65;;;;;;;;;;10404694;28;20037;-79
2023/05/16 01:22:15;;;;;;;6.80;3.50;;;;;;;;;;10406595;28;20045;-77
2023/05/16 01:27:19;;;;;;;6.47;2.95;;;;;;;;;;10407802;28;20479;-75
2023/05/16 01:32:22;;;;;;;5.05;2.95;;;;;;;;;;10402878;28;20029;-78
2023/05/16 01:37:30;;;;;;;6.82;3.35;;;;;;;;;;10408281;28;20152;-77
2023/05/16 01:42:36;;;;;;;7.88;3.65;;;;;;;;;;10407041;28;20076;-74
2023/05/16 01:47:41;;;;;;;5.00;2.38;;;;;;;;;;10403862;28;20053;-78
2023/05/16 01:52:46;;;;;;;6.07;3.28;;;;;;;;;;10406620;28;20045;-76
2023/05/16 01:57:50;;;;;;;6.82;3.90;;;;;;;;;;10407561;28;20092;-78
2023/05/16 02:02:53;;;;;;;7.68;1.98;;;;;;;;;;10403563;28;20033;-76
2023/05/16 02:07:55;;;;;;;6.40;3.40;;;;;;;;;;10405637;28;20107;-76
2023/05/16 02:12:59;;;;;;;8.85;3.80;;;;;;;;;;10407053;28;20029;-77
2023/05/16 02:18:02;;;;;;;8.05;4.20;;;;;;;;;;10404363;28;20196;-76
2023/05/16 02:23:05;;;;;;;7.72;3.83;;;;;;;;;;10404342;28;20172;-76
2023/05/16 02:28:09;;;;;;;6.67;2.93;;;;;;;;;;10415875;28;20195;-78
2023/05/16 02:33:12;;;;;;;;;;;;;;;;;;10401776;28;20044;-78
2023/05/16 02:38:16;;;;;;;8.80;4.38;;;;;;;;;;10402719;28;19921;-77
2023/05/16 02:43:21;;;;;;;6.18;3.22;;;;;;;;;;10399485;28;20486;-78
2023/05/16 02:48:24;;;;;;;15.05;4.85;;;;;;;;;;10401974;28;20076;-76
2023/05/16 02:53:27;;;;;;;2.33;1.30;;;;;;;;;;10406395;28;20045;-77
2023/05/16 02:58:31;;;;;;;7.30;3.22;;;;;;;;;;10404660;28;20060;-78
2023/05/16 03:03:34;;;;;;;8.35;4.03;;;;;;;;;;10401877;28;20564;-76
2023/05/16 03:08:38;;;;;;;8.40;3.47;;;;;;;;;;10404579;28;20069;-76
2023/05/16 03:13:42;;;;;;;9.43;4.53;;;;;;;;;;10399489;28;20506;-75
2023/05/16 03:18:45;;;;;;;9.60;4.22;;;;;;;;;;10400290;28;20045;-76
2023/05/16 03:23:50;;;;;;;8.17;4.40;;;;;;;;;;10401919;28;20041;-77
2023/05/16 03:28:54;;;;;;;10.30;4.20;;;;;;;;;;10399797;28;20132;-76
2023/05/16 03:33:56;;;;;;;;;;;;;;;;;;10404448;28;20053;-76
2023/05/16 03:38:59;;;;;;;10.52;4.97;;;;;;;;;;10401513;28;19928;-76
2023/05/16 03:44:03;;;;;;;9.25;4.22;;;;;;;;;;10399012;28;20505;-76
2023/05/16 03:49:06;;;;;;;;;;;;;;;;;;10399955;28;20041;-75
2023/05/16 03:54:09;;;;;;;9.88;4.70;;;;;;;;;;10398846;28;19925;-75
2023/05/16 03:59:12;;;;;;;11.43;4.85;;;;;;;;;;10399569;28;21562;-76
2023/05/16 04:04:15;;;;;;;;;;;;;;;;;;10403092;28;20053;-76
2023/05/16 04:09:18;;;;;;;9.57;4.57;;;;;;;;;;10404558;28;19960;-77
2023/05/16 04:14:22;;;;;;;3.60;1.97;;;;;;;;;;10399908;28;20146;-77
2023/05/16 04:19:26;;;;;;;10.93;5.22;;;;;;;;;;10400315;28;20049;-75
2023/05/16 04:24:29;;;;;;;3.93;2.57;;;;;;;;;;10399459;28;20034;-76
2023/05/16 04:29:33;;;;;;;12.70;5.40;;;;;;;;;;10396696;28;20707;-77
2023/05/16 04:34:37;;;;;;;7.88;4.38;;;;;;;;;;10397518;28;20053;-77
2023/05/16 04:39:42;;;;;;;8.55;4.32;;;;;;;;;;10398076;28;20056;-77
2023/05/16 04:44:46;;;;;;;10.95;5.18;;;;;;;;;;10397793;28;20051;-77
2023/05/16 04:49:49;;;;;;;10.25;5.30;;;;;;;;;;10411056;28;20463;-76
2023/05/16 04:54:52;;;;;;;13.60;5.53;;;;;;;;;;10420581;28;20053;-79
2023/05/16 04:59:56;;;;;;;13.07;6.33;;;;;;;;;;10418941;28;20033;-77
2023/05/16 05:04:59;;;;;;;11.07;5.95;;;;;;;;;;10415151;28;20422;-77
2023/05/16 05:10:02;;;;;;;10.95;5.60;;;;;;;;;;10405690;28;20045;-77
2023/05/16 05:15:07;;;;;;;12.67;5.90;;;;;;;;;;10405888;28;20045;-77
2023/05/16 05:20:11;;;;;;;10.70;5.70;;;;;;;;;;10406322;28;20191;-78
2023/05/16 05:25:14;;;;;;;;;;;;;;;;;;10408335;28;20041;-77
2023/05/16 05:30:19;;;;;;;15.82;6.15;;;;;;;;;;10403764;28;19929;-77
2023/05/16 05:35:21;;;;;;;14.30;6.35;;;;;;;;;;10407925;28;20057;-77
2023/05/16 05:40:24;;;;;;;14.95;6.45;;;;;;;;;;10406723;28;20049;-78
2023/05/16 05:45:29;;;;;;;13.90;6.50;;;;;;;;;;10403466;28;20045;-79
2023/05/16 05:50:31;;;;;;;14.50;6.35;;;;;;;;;;10402447;28;20046;-80
2023/05/16 05:55:34;;;;;;;16.80;7.15;;;;;;;;;;10400297;28;20144;-79
2023/05/16 06:00:38;;;;;;;15.65;7.25;;;;;;;;;;10395053;28;20037;-79
2023/05/16 06:05:41;;;;;;;15.40;7.88;;;;;;;;;;10396999;28;20041;-78
2023/05/16 06:10:43;;;;;;;16.42;7.10;;;;;;;;;;10399232;28;20049;-78
2023/05/16 06:15:51;;;;;;;15.23;6.53;;;;;;;;;;10395583;28;20049;-77
2023/05/16 06:20:53;;;;;;;15.23;6.38;;;;;;;;;;10396307;28;20046;-78
2023/05/16 06:25:56;;;;;;;17.98;6.57;;;;;;;;;;10396201;28;20053;-78
2023/05/16 06:31:00;;;;;;;11.60;6.47;;;;;;;;;;10392955;28;20049;-79
2023/05/16 06:36:03;;;;;;;11.90;6.20;;;;;;;;;;10397517;28;20100;-85
2023/05/16 06:41:06;;;;;;;12.17;6.27;;;;;;;;;;10398056;28;20509;-78
2023/05/16 06:46:10;;;;;;;13.43;6.47;;;;;;;;;;10392665;28;20376;-79
2023/05/16 06:51:12;;;;;;;12.02;6.45;;;;;;;;;;10394624;28;20045;-79
2023/05/16 06:56:15;;;;;;;15.32;6.82;;;;;;;;;;10394415;28;20625;-89
2023/05/16 07:01:19;;;;;;;14.77;6.90;;;;;;;;;;10393127;28;20034;-79
2023/05/16 07:06:22;;;;;;;11.85;6.72;;;;;;;;;;10392900;28;20051;-79
2023/05/16 07:11:24;;;;;;;14.02;6.95;;;;;;;;;;10394130;28;20049;-78
2023/05/16 07:16:28;;;;;;;13.13;6.93;;;;;;;;;;10396570;28;20049;-80
2023/05/16 07:21:31;;;;;;;14.35;7.05;;;;;;;;;;10397836;28;20041;-79
2023/05/16 07:26:34;;;;;;;13.30;6.90;;;;;;;;;;10393796;28;20041;-79
2023/05/16 07:31:37;;;;;;;10.40;6.03;;;;;;;;;;10390914;28;20459;-78
2023/05/16 07:36:40;;;;;;;15.15;6.97;;;;;;;;;;10392157;28;20072;-80
2023/05/16 07:41:43;;;;;;;16.27;6.90;;;;;;;;;;10390785;28;20133;-78
2023/05/16 07:46:47;;;;;;;16.65;7.50;;;;;;;;;;10392297;28;20180;-78
2023/05/16 07:51:49;;;;;;;12.27;6.70;;;;;;;;;;10390414;28;20029;-78
2023/05/16 07:56:52;;;;;;;17.63;8.02;;;;;;;;;;10390876;28;20506;-79
2023/05/16 08:01:56;;;;;;;15.50;7.82;;;;;;;;;;10389071;28;20061;-79
2023/05/16 08:06:59;;;;;;;16.35;8.45;;;;;;;;;;10393116;28;20115;-80
2023/05/16 08:12:02;;;;;;;18.88;7.80;;;;;;;;;;10393264;28;20033;-80
2023/05/16 08:17:07;;;;;;;19.58;8.27;;;;;;;;;;10390955;28;20041;-78
2023/05/16 08:22:09;;;;;;;15.90;7.68;;;;;;;;;;10389338;28;20033;-78
2023/05/16 08:27:12;;;;;;;16.95;8.88;;;;;;;;;;10391599;28;20102;-78
2023/05/16 08:32:16;;;;;;;14.60;7.47;;;;;;;;;;10391797;28;20041;-79
2023/05/16 08:37:19;;;;;;;16.67;7.82;;;;;;;;;;10387323;28;20045;-80
2023/05/16 08:42:22;;;;;;;18.13;8.07;;;;;;;;;;10381223;28;20041;-80
2023/05/16 08:47:27;;;;;;;15.40;8.33;;;;;;;;;;10386073;28;20451;-80
2023/05/16 08:52:32;;;;;;;17.08;8.30;;;;;;;;;;10385126;28;20605;-81
2023/05/16 08:57:35;;;;;;;15.02;7.95;;;;;;;;;;10390698;28;20482;-81
2023/05/16 09:02:40;;;;;;;15.63;7.97;;;;;;;;;;10390734;28;20296;-81
2023/05/16 09:07:43;;;;;;;14.68;7.78;;;;;;;;;;10390088;28;20405;-79
2023/05/16 09:12:46;;;;;;;16.90;7.65;;;;;;;;;;10390436;28;20113;-78
2023/05/16 09:17:51;;;;;;;16.33;7.93;;;;;;;;;;10390576;28;20044;-79
2023/05/16 09:22:55;;;;;;;15.90;8.30;;;;;;;;;;10390658;28;21151;-80
2023/05/16 09:27:57;;;;;;;;;;;;;;;;;;10392072;28;20135;-79
2023/05/16 09:33:01;;;;;;;12.85;7.50;;;;;;;;;;10393131;28;20011;-79
2023/05/16 09:38:05;;;;;;;14.52;8.07;;;;;;;;;;10400237;28;20516;-79
2023/05/16 09:43:07;;;;;;;13.63;7.97;;;;;;;;;;10397392;28;20050;-79
2023/05/16 09:48:12;;;;;;;11.60;7.17;;;;;;;;;;10404771;28;20132;-85
2023/05/16 09:53:15;;;;;;;14.75;8.32;;;;;;;;;;10409263;28;20061;-85
2023/05/16 09:58:18;;;;;;;13.47;8.07;;;;;;;;;;10397282;28;20446;-85
2023/05/16 10:03:23;;;;;;;14.32;8.55;;;;;;;;;;10396380;28;20067;-78
2023/05/16 10:08:26;;;;;;;12.52;7.82;;;;;;;;;;10397260;28;20061;-80
2023/05/16 10:13:30;;;;;;;12.93;7.95;;;;;;;;;;10394635;28;20049;-79
2023/05/16 10:18:35;;;;;;;14.10;8.80;;;;;;;;;;10395204;28;20486;-79
2023/05/16 10:23:41;;;;;;;14.18;8.35;;;;;;;;;;10394571;28;20115;-78
2023/05/16 10:28:43;;;;;;;15.20;9.23;;;;;;;;;;10393288;28;20045;-78
2023/05/16 10:33:47;;;;;;;14.70;9.03;;;;;;;;;;10394401;28;20119;-78
2023/05/16 10:38:50;;;;;;;13.93;8.68;;;;;;;;;;10394500;28;20049;-77
2023/05/16 10:43:56;;;;;;;17.75;9.25;;;;;;;;;;10392910;28;20052;-78
2023/05/16 10:49:19;;;;;;;20.23;9.55;;;;;;;;;;10395755;28;20057;-77
2023/05/16 10:54:33;;;;;;;15.85;9.50;;;;;;;;;;10396603;28;20067;-77
2023/05/16 10:59:40;;;;;;;16.23;8.57;;;;;;;;;;10396574;28;20138;-78
2023/05/16 11:04:48;;;;;;;15.30;8.00;;;;;;;;;;10395929;28;20120;-78
2023/05/16 11:10:01;;;;;;;16.15;9.25;;;;;;;;;;10396241;28;20037;-78
2023/05/16 11:15:19;;;;;;;17.48;9.10;;;;;;;;;;10395583;28;20375;-77
2023/05/16 11:20:28;;;;;;;12.65;6.90;;;;;;;;;;10393906;28;20477;-77
2023/05/16 11:25:35;;;;;;;22.13;9.32;;;;;;;;;;10396169;28;20053;-76
2023/05/16 11:30:44;;;;;;;20.60;10.05;;;;;;;;;;10399262;28;20040;-77
2023/05/16 11:36:01;;;;;;;20.67;10.23;;;;;;;;;;10393333;28;20065;-78
2023/05/16 11:41:19;;;;;;;21.27;10.95;;;;;;;;;;10392641;28;20203;-78
2023/05/16 11:46:27;;;;;;;21.02;10.32;;;;;;;;;;10392857;28;20046;-79
2023/05/16 11:51:33;;;;;;;22.88;11.20;;;;;;;;;;10392429;28;20132;-75
2023/05/16 11:56:37;;;;;;;19.45;10.30;;;;;;;;;;10396613;28;20125;-76
2023/05/16 12:01:42;;;;;;;17.98;9.98;;;;;;;;;;10399372;28;20037;-78
2023/05/16 12:06:57;;;;;;;19.88;9.82;;;;;;;;;;10398417;28;20037;-77
2023/05/16 12:12:00;;;;;;;17.38;9.80;;;;;;;;;;10400290;28;20549;-78
2023/05/16 12:17:04;;;;;;;18.23;10.70;;;;;;;;;;10397445;28;20101;-78
2023/05/16 12:22:15;;;;;;;19.58;11.05;;;;;;;;;;10400399;28;20042;-78
2023/05/16 12:27:21;;;;;;;19.60;9.80;;;;;;;;;;10407185;28;20104;-79
2023/05/16 12:32:24;;;;;;;20.50;11.30;;;;;;;;;;10390590;28;20033;-80
2023/05/16 12:37:29;;;;;;;19.00;10.40;;;;;;;;;;10390302;28;20041;-81
2023/05/16 12:42:31;;;;;;;18.50;10.32;;;;;;;;;;10390264;28;20046;-80
2023/05/16 12:47:35;;;;;;;19.17;11.10;;;;;;;;;;10386877;28;20520;-81
2023/05/16 12:52:45;;;;;;;16.95;9.90;;;;;;;;;;10389945;28;20303;-81
2023/05/16 12:57:49;;;;;;;20.80;11.70;;;;;;;;;;10390482;28;20038;-80
2023/05/16 13:02:51;;;;;;;16.85;10.45;;;;;;;;;;10390108;28;20052;-83
2023/05/16 13:07:56;;;;;;;20.27;10.55;;;;;;;;;;10392553;28;20052;-83
2023/05/16 13:12:59;;;;;;;20.90;10.93;;;;;;;;;;10394227;28;20116;-81
2023/05/16 13:18:02;;;;;;;17.77;10.27;;;;;;;;;;10398305;28;20163;-81
2023/05/16 13:23:06;;;;;;;20.88;11.27;;;;;;;;;;10400564;28;20061;-81
2023/05/16 13:28:09;;;;;;;23.45;11.88;;;;;;;;;;10398223;28;20056;-83
2023/05/16 13:33:12;;;;;;;13.60;9.27;;;;;;;;;;10398602;28;20440;-80
2023/05/16 13:38:17;;;;;;;15.50;8.00;;;;;;;;;;10400161;28;20056;-79
2023/05/16 13:43:20;;;;;;;17.92;7.95;;;;;;;;;;10401389;28;20049;-81
2023/05/16 13:48:23;;;;;;;14.38;6.93;;;;;;;;;;10406623;28;20120;-78
2023/05/16 13:53:27;;;;;;;13.10;6.60;;;;;;;;;;10408467;28;20042;-79
2023/05/16 13:58:30;;;;;;;11.63;6.43;;;;;;;;;;10401584;28;20128;-79
2023/05/16 14:03:35;;;;;;;8.95;5.53;;;;;;;;;;10392062;28;20743;-79
2023/05/16 14:08:39;;;;;;;12.90;5.72;;;;;;;;;;10395056;28;20594;-79
2023/05/16 14:13:42;;;;;;;9.25;5.32;;;;;;;;;;10396668;28;20117;-78
2023/05/16 14:18:45;;;;;;;10.85;5.43;;;;;;;;;;10395146;28;20077;-79
2023/05/16 14:23:49;;;;;;;12.35;5.80;;;;;;;;;;10393293;28;20042;-78
2023/05/16 14:28:52;;;;;;;10.60;5.00;;;;;;;;;;10395635;28;20064;-78
2023/05/16 14:33:54;;;;;;;10.93;5.70;;;;;;;;;;10389989;28;20544;-78
2023/05/16 14:38:59;;;;;;;11.48;6.35;;;;;;;;;;10394021;28;20224;-77
2023/05/16 14:44:01;;;;;;;10.00;5.72;;;;;;;;;;10392513;28;20049;-78
2023/05/16 14:49:04;;;;;;;10.50;5.63;;;;;;;;;;10400948;28;20045;-78
2023/05/16 14:54:09;;;;;;;10.73;5.90;;;;;;;;;;10396840;28;20069;-78
2023/05/16 14:59:13;;;;;;;12.05;5.90;;;;;;;;;;10397007;28;20065;-79
2023/05/16 15:04:15;;;;;;;8.77;5.18;;;;;;;;;;10385747;28;20168;-78
2023/05/16 15:09:20;;;;;;;9.48;5.55;;;;;;;;;;10390999;28;20037;-77
2023/05/16 15:14:22;;;;;;;13.18;6.50;;;;;;;;;;10391689;28;20060;-77
2023/05/16 15:19:25;;;;;;;10.48;5.28;;;;;;;;;;10389624;28;20120;-78
2023/05/16 15:24:29;;;;;;;10.63;5.97;;;;;;;;;;10391016;28;20505;-79
2023/05/16 15:29:32;;;;;;;10.88;6.05;;;;;;;;;;10390721;28;20069;-79
2023/05/16 15:34:35;;;;;;;11.50;6.10;;;;;;;;;;10387546;28;20136;-79
2023/05/16 15:39:41;;;;;;;11.60;6.18;;;;;;;;;;10388744;28;20059;-80
2023/05/16 15:44:43;;;;;;;12.05;6.40;;;;;;;;;;10392559;28;20170;-79
2023/05/16 15:49:46;;;;;;;10.85;6.07;;;;;;;;;;10390269;28;20045;-79
2023/05/16 15:54:50;;;;;;;10.73;5.93;;;;;;;;;;10390937;28;20049;-79
2023/05/16 15:59:53;;;;;;;10.20;6.07;;;;;;;;;;10391196;28;20068;-79
2023/05/16 16:04:56;;;;;;;11.37;6.40;;;;;;;;;;10385316;28;20396;-78
2023/05/16 16:10:00;;;;;;;14.27;6.70;;;;;;;;;;10388281;28;20046;-79
2023/05/16 16:15:05;;;;;;;12.80;6.90;;;;;;;;;;10380267;28;20045;-79
2023/05/16 16:20:08;;;;;;;11.00;6.65;;;;;;;;;;10387898;28;20049;-79
2023/05/16 16:25:12;;;;;;;15.93;8.13;;;;;;;;;;10388626;28;20045;-78
2023/05/16 16:30:20;;;;;;;16.35;8.50;;;;;;;;;;10387742;28;20929;-79
2023/05/16 16:35:24;;;;;;;14.40;7.93;;;;;;;;;;10387220;28;20159;-79
2023/05/16 16:40:29;;;;;;;17.52;8.25;;;;;;;;;;10392919;28;20044;-79
2023/05/16 16:45:32;;;;;;;18.10;8.80;;;;;;;;;;10392515;28;20043;-80
2023/05/16 16:50:34;;;;;;;16.10;8.38;;;;;;;;;;10399316;28;20483;-79
2023/05/16 16:55:38;;;;;;;18.55;8.52;;;;;;;;;;10392869;28;20037;-78
2023/05/16 17:00:43;;;;;;;19.27;8.65;;;;;;;;;;10393313;28;20198;-78
2023/05/16 17:05:45;;;;;;;17.40;8.68;;;;;;;;;;10397399;28;20486;-78
2023/05/16 17:10:49;;;;;;;18.90;10.02;;;;;;;;;;10406469;28;20478;-78
2023/05/16 17:15:52;;;;;;;16.80;8.95;;;;;;;;;;10395761;28;20044;-79
2023/05/16 17:20:55;;;;;;;21.83;9.63;;;;;;;;;;10400508;28;20040;-80
2023/05/16 17:25:59;;;;;;;20.33;9.65;;;;;;;;;;10398190;28;20034;-78
2023/05/16 17:31:02;;;;;;;23.38;11.30;;;;;;;;;;10392642;28;20055;-78
2023/05/16 17:36:06;;;;;;;20.23;10.32;;;;;;;;;;10396137;28;20036;-78
2023/05/16 17:41:10;;;;;;;18.90;10.03;;;;;;;;;;10397339;28;20049;-78
2023/05/16 17:46:13;;;;;;;24.52;11.65;;;;;;;;;;10392255;28;20064;-78
2023/05/16 17:51:15;;;;;;;21.03;10.33;;;;;;;;;;10394566;28;20159;-76
2023/05/16 17:56:24;;;;;;;21.25;9.95;;;;;;;;;;10403269;28;20307;-79
2023/05/16 18:01:27;;;;;;;23.85;10.52;;;;;;;;;;10398284;28;20048;-78
2023/05/16 18:06:30;;;;;;;19.85;9.38;;;;;;;;;;10394628;28;20030;-78
2023/05/16 18:11:34;;;;;;;25.65;11.77;;;;;;;;;;10400886;28;20466;-78
2023/05/16 18:16:37;;;;;;;21.15;10.10;;;;;;;;;;10400771;28;20144;-80
2023/05/16 18:21:40;;;;;;;20.58;10.05;;;;;;;;;;10398630;28;20919;-79
2023/05/16 18:26:47;;;;;;;23.70;10.80;;;;;;;;;;10398701;28;20041;-79
2023/05/16 18:31:49;;;;;;;20.77;9.75;;;;;;;;;;10395667;28;20378;-79
2023/05/16 18:36:59;;;;;;;21.52;10.10;;;;;;;;;;10396824;28;20038;-79
2023/05/16 18:42:05;;;;;;;18.55;9.20;;;;;;;;;;10399433;28;20041;-78
2023/05/16 18:47:08;;;;;;;19.80;9.77;;;;;;;;;;10399793;28;20056;-77
2023/05/16 18:52:11;;;;;;;16.83;8.70;;;;;;;;;;10400314;28;20051;-77
2023/05/16 18:57:15;;;;;;;13.68;7.45;;;;;;;;;;10396378;28;20107;-78
2023/05/16 19:02:18;;;;;;;13.88;7.50;;;;;;;;;;10400491;28;21034;-77
2023/05/16 19:07:35;;;;;;;14.50;6.85;;;;;;;;;;10393859;28;20103;-77
2023/05/16 19:12:40;;;;;;;14.63;7.07;;;;;;;;;;10396550;28;20576;-79
2023/05/16 19:17:42;;;;;;;;;;;;;;;;;;10396096;28;20057;-81
2023/05/16 19:22:45;;;;;;;13.45;7.00;;;;;;;;;;10399030;28;20337;-78
2023/05/16 19:27:49;;;;;;;15.43;7.00;;;;;;;;;;10398529;28;20175;-81
2023/05/16 19:32:52;;;;;;;;;;;;;;;;;;10397624;28;20593;-79
2023/05/16 19:37:54;;;;;;;15.15;5.97;;;;;;;;;;10398639;28;20015;-79
2023/05/16 19:42:58;;;;;;;13.45;5.53;;;;;;;;;;10398193;28;20041;-77
2023/05/16 19:48:01;;;;;;;;;;;;;;;;;;10396522;28;20055;-79
2023/05/16 19:53:03;;;;;;;12.43;5.35;;;;;;;;;;10399859;28;20404;-78
2023/05/16 19:58:07;;;;;;;12.50;6.03;;;;;;;;;;10396510;28;20049;-79
2023/05/16 20:03:10;;;;;;;;;;;;;;;;;;10399900;28;20041;-78
2023/05/16 20:08:13;;;;;;;11.18;5.20;;;;;;;;;;10394827;28;19921;-77
2023/05/16 20:13:19;;;;;;;11.40;5.20;;;;;;;;;;10395637;28;20048;-77
2023/05/16 20:18:22;;;;;;;10.52;4.60;;;;;;;;;;10397484;28;20402;-78
2023/05/16 20:23:25;;;;;;;11.13;5.00;;;;;;;;;;10399219;28;20064;-77
2023/05/16 20:28:30;;;;;;;11.47;4.90;;;;;;;;;;10397953;28;20287;-79
2023/05/16 20:33:33;;;;;;;11.85;5.32;;;;;;;;;;10394484;28;20526;-79
2023/05/16 20:38:37;;;;;;;11.98;4.57;;;;;;;;;;10398991;28;20037;-78
2023/05/16 20:43:41;;;;;;;9.70;4.60;;;;;;;;;;10397747;28;20037;-78
2023/05/16 20:48:43;;;;;;;10.57;5.13;;;;;;;;;;10396806;28;20033;-78
2023/05/16 20:53:46;;;;;;;13.13;5.97;;;;;;;;;;10399930;28;20049;-78
2023/05/16 20:58:51;;;;;;;10.32;4.80;;;;;;;;;;10400033;28;20033;-78
2023/05/16 21:03:53;;;;;;;8.32;4.07;;;;;;;;;;10395271;28;20487;-78
2023/05/16 21:08:57;;;;;;;9.65;4.50;;;;;;;;;;10394721;28;20065;-78
2023/05/16 21:14:01;;;;;;;9.18;3.88;;;;;;;;;;10394157;28;20056;-79
2023/05/16 21:19:17;;;;;;;8.60;3.35;;;;;;;;;;10396099;28;20515;-79
2023/05/16 21:24:25;;;;;;;7.72;3.50;;;;;;;;;;10389290;28;20052;-78
2023/05/16 21:29:33;;;;;;;7.15;3.30;;;;;;;;;;10395975;28;20048;-78
2023/05/16 21:34:39;;;;;;;5.50;2.53;;;;;;;;;;10404815;28;20038;-76
2023/05/16 21:39:53;;;;;;;8.13;3.20;;;;;;;;;;10404369;28;20053;-78
2023/05/16 21:45:15;;;;;;;4.93;2.45;;;;;;;;;;10402869;28;20061;-79
2023/05/16 21:50:29;;;;;;;5.97;2.60;;;;;;;;;;10405430;28;20103;-79
2023/05/16 21:55:45;;;;;;;7.32;2.70;;;;;;;;;;10402274;28;20068;-78
2023/05/16 22:01:12;;;;;;;6.65;2.95;;;;;;;;;;10401891;28;20443;-77
2023/05/16 22:06:23;;;;;;;5.97;2.58;;;;;;;;;;10404486;28;20588;-77
2023/05/16 22:11:34;;;;;;;6.32;2.67;;;;;;;;;;10402224;28;20494;-78
2023/05/16 22:16:50;;;;;;;7.85;2.35;;;;;;;;;;10403654;28;20092;-77
2023/05/16 22:21:58;;;;;;;5.13;2.60;;;;;;;;;;10400548;28;20045;-78
2023/05/16 22:27:14;;;;;;;7.07;2.58;;;;;;;;;;10405578;28;20059;-77
2023/05/16 22:32:27;;;;;;;5.78;2.50;;;;;;;;;;10403369;28;20094;-78
2023/05/16 22:37:33;;;;;;;3.78;2.45;;;;;;;;;;10403796;28;20056;-78
2023/05/16 22:42:38;;;;;;;7.72;2.60;;;;;;;;;;10401335;28;20085;-79
2023/05/16 22:53:08;;;;;;;7.60;2.20;;;;;;;;;;10400864;28;20053;-79
2023/05/16 22:58:12;;;;;;;7.18;2.30;;;;;;;;;;10399491;28;20044;-79
2023/05/16 23:03:18;;;;;;;6.10;2.27;;;;;;;;;;10397272;28;20502;-79
2023/05/16 23:08:32;;;;;;;7.00;2.30;;;;;;;;;;10382612;28;20499;-77
2023/05/16 23:13:49;;;;;;;9.55;2.50;;;;;;;;;;10396934;28;20053;-79
2023/05/16 23:18:59;;;;;;;3.65;1.95;;;;;;;;;;10399179;28;20042;-78
2023/05/16 23:24:24;;;;;;;4.50;2.30;;;;;;;;;;10397667;28;20049;-77
2023/05/16 23:29:34;;;;;;;4.57;2.22;;;;;;;;;;10412801;28;20673;-77
2023/05/16 23:34:40;;;;;;;7.13;2.85;;;;;;;;;;10398723;28;20081;-77
2023/05/16 23:39:44;;;;;;;;;;;;;;;;;;10398397;28;20487;-77
2023/05/16 23:45:10;;;;;;;5.00;2.20;;;;;;;;;;10393696;28;20035;-78
2023/05/16 23:50:16;;;;;;;5.97;2.33;;;;;;;;;;10397849;28;20136;-78
2023/05/16 23:55:20;;;;;;;4.35;1.75;;;;;;;;;;10394876;28;20051;-77
